Boyd, Illinois
Current Conditions -  °F | °C
As of 4:15 AM on Wednesday 26 Nov 2014 (Local Time) from KENL Reporting Station
Clear Clear  
Wind Chill: 19°   Ceiling: Unl
Heat Index: 25°   Visibility: 10mi
Dew Point: 22°   Wind: 5mph
Humidity: 89%   Direction: 110°ESE
Pressure: 30.12"   Gusts: NA
Location:  38.4334°N, 88.9732°W
Report Text: KENL 261015Z AUTO 11004KT 10SM CLR M04/M06 A3012 RMK AO2 T10401056
Loading
Personal Weather Stations






























Interactive Weather Map New forecast layout! Learn more

10-Day Weather Forecast

Advertisements
Track Severe Weather on mobile